Time;durP1;ratioP1;P1;durP2;ratioP2;P2;SDS_P1;SDS_P2;PMS_P1;PMS_P2;Temp;Humidity;BMP_temperature;BMP_pressure;BME280_temperature;BME280_humidity;BME280_pressure;Samples;Min_cycle;Max_cycle;Signal;HPM_P1;HPM_P2
2021/11/25 00:01:02;;;;;;;;;;;19.60;42.20;;;;;;5137767;27;20345;-60
2021/11/25 00:03:28;;;;;;;;;;;19.60;42.40;;;;;;5137699;27;19913;-60
2021/11/25 00:05:53;;;;;;;;;;;19.60;42.20;;;;;;5137876;27;19994;-60
2021/11/25 00:08:19;;;;;;;;;;;19.60;42.10;;;;;;5137908;27;20354;-59
2021/11/25 00:10:44;;;;;;;;;;;19.60;42.10;;;;;;5137600;27;19915;-58
2021/11/25 00:13:10;;;;;;;;;;;19.70;42.20;;;;;;5137810;27;20251;-59
2021/11/25 00:15:36;;;;;;;;;;;19.60;42.10;;;;;;5137421;27;20480;-59
2021/11/25 00:18:01;;;;;;;;;;;19.70;42.10;;;;;;5137495;27;19915;-59
2021/11/25 00:20:27;;;;;;;;;;;19.60;42.10;;;;;;5137330;27;19907;-60
2021/11/25 00:22:52;;;;;;;;;;;19.70;42.10;;;;;;5137309;27;20366;-60
2021/11/25 00:25:18;;;;;;;;;;;19.60;42.20;;;;;;5137235;27;19989;-59
2021/11/25 00:27:44;;;;;;;;;;;19.60;42.10;;;;;;5137579;27;19908;-59
2021/11/25 00:30:11;;;;;;;;;;;19.60;42.10;;;;;;5137526;27;19912;-59
2021/11/25 00:32:37;;;;;;;;;;;19.60;42.20;;;;;;5137253;27;20084;-59
2021/11/25 00:35:03;;;;;;;;;;;19.60;42.20;;;;;;5137058;27;19950;-58
2021/11/25 00:37:28;;;;;;;;;;;19.60;42.10;;;;;;5137345;27;20360;-59
2021/11/25 00:39:54;;;;;;;;;;;19.60;42.20;;;;;;5137401;27;19911;-58
2021/11/25 00:42:19;;;;;;;;;;;19.60;42.20;;;;;;5137231;27;20346;-60
2021/11/25 00:44:45;;;;;;;;;;;19.60;42.20;;;;;;5136824;27;19930;-60
2021/11/25 00:47:10;;;;;;;;;;;19.60;42.20;;;;;;5136527;27;19907;-60
2021/11/25 00:49:36;;;;;;;;;;;19.60;42.20;;;;;;5137090;27;19936;-58
2021/11/25 00:52:01;;;;;;;;;;;19.60;42.00;;;;;;5136828;27;20358;-59
2021/11/25 00:54:27;;;;;;;;;;;19.60;42.00;;;;;;5136910;27;20254;-59
2021/11/25 00:56:52;;;;;;;;;;;19.60;42.10;;;;;;5136453;27;19931;-58
2021/11/25 00:59:18;;;;;;;;;;;19.60;42.10;;;;;;5136762;27;19911;-60
2021/11/25 01:01:43;;;;;;;;;;;19.60;42.10;;;;;;5136610;27;20414;-60
2021/11/25 01:04:09;;;;;;;;;;;19.60;42.00;;;;;;5136644;27;20358;-58
2021/11/25 01:06:34;;;;;;;;;;;19.60;42.00;;;;;;5136729;27;19907;-58
2021/11/25 01:09:00;;;;;;;;;;;19.60;42.00;;;;;;5136741;27;19907;-58
2021/11/25 01:11:25;;;;;;;;;;;19.60;42.10;;;;;;5136740;27;19969;-60
2021/11/25 01:13:51;;;;;;;;;;;19.50;42.10;;;;;;5136394;27;20504;-59
2021/11/25 01:16:17;;;;;;;;;;;19.60;42.00;;;;;;5136239;27;19911;-60
2021/11/25 01:18:43;;;;;;;;;;;19.60;41.90;;;;;;5136289;27;19911;-58
2021/11/25 01:21:08;;;;;;;;;;;19.60;42.00;;;;;;5136391;27;19907;-58
2021/11/25 01:23:33;;;;;;;;;;;19.50;42.00;;;;;;5136101;27;19994;-59
2021/11/25 01:25:59;;;;;;;;;;;19.60;41.90;;;;;;5136231;27;19907;-58
2021/11/25 01:28:25;;;;;;;;;;;19.60;41.90;;;;;;5136381;27;19911;-59
2021/11/25 01:30:52;;;;;;;;;;;19.60;41.90;;;;;;5135990;27;20040;-58
2021/11/25 01:33:18;;;;;;;;;;;19.50;41.80;;;;;;5135912;27;19912;-58
2021/11/25 01:35:44;;;;;;;;;;;19.60;41.90;;;;;;5135899;27;19915;-58
2021/11/25 01:38:10;;;;;;;;;;;19.50;41.90;;;;;;5136076;27;19915;-59
2021/11/25 01:40:37;;;;;;;;;;;19.50;41.90;;;;;;5136099;27;19914;-60
2021/11/25 01:43:03;;;;;;;;;;;19.50;41.90;;;;;;5136088;27;19919;-60
2021/11/25 01:45:29;;;;;;;;;;;19.50;41.90;;;;;;5135757;27;20006;-59
2021/11/25 01:47:55;;;;;;;;;;;19.50;41.90;;;;;;5135856;27;19946;-59
2021/11/25 01:50:21;;;;;;;;;;;19.50;41.80;;;;;;5135790;27;19987;-59
2021/11/25 01:52:47;;;;;;;;;;;19.50;41.70;;;;;;5135485;27;19961;-59
2021/11/25 01:55:14;;;;;;;;;;;19.50;41.80;;;;;;5135478;27;19911;-59
2021/11/25 01:57:39;;;;;;;;;;;19.50;41.80;;;;;;5115910;27;19919;-58
2021/11/25 02:00:13;;;;;;;;;;;19.50;41.80;;;;;;5135399;27;20381;-59
2021/11/25 02:02:39;;;;;;;;;;;19.50;41.90;;;;;;5135569;27;19907;-58
2021/11/25 02:05:05;;;;;;;;;;;19.50;41.90;;;;;;5135458;27;19914;-59
2021/11/25 02:07:30;;;;;;;;;;;19.50;41.80;;;;;;5135067;27;19914;-59
2021/11/25 02:09:55;;;;;;;;;;;19.50;41.90;;;;;;5135433;27;19907;-58
2021/11/25 02:12:21;;;;;;;;;;;19.50;41.70;;;;;;5135136;27;19946;-59
2021/11/25 02:14:46;;;;;;;;;;;19.50;41.90;;;;;;5135114;27;19914;-60
2021/11/25 02:17:12;;;;;;;;;;;19.50;41.90;;;;;;5134888;27;20434;-59
2021/11/25 02:19:38;;;;;;;;;;;19.50;41.80;;;;;;5134952;27;19915;-58
2021/11/25 02:22:03;;;;;;;;;;;19.50;41.70;;;;;;5134822;27;19914;-58
2021/11/25 02:24:31;;;;;;;;;;;19.50;41.80;;;;;;5135010;27;19915;-59
2021/11/25 02:26:57;;;;;;;;;;;19.50;41.70;;;;;;5134981;27;19908;-59
2021/11/25 02:29:22;;;;;;;;;;;19.50;41.80;;;;;;5134840;27;19934;-58
2021/11/25 02:31:49;;;;;;;;;;;19.50;41.80;;;;;;5134722;27;20162;-59
2021/11/25 02:34:15;;;;;;;;;;;19.50;41.60;;;;;;5134761;27;20374;-58
2021/11/25 02:36:40;;;;;;;;;;;19.50;41.70;;;;;;5134907;27;19947;-59
2021/11/25 02:39:06;;;;;;;;;;;19.50;41.60;;;;;;5134875;27;19912;-59
2021/11/25 02:41:31;;;;;;;;;;;19.50;41.60;;;;;;5134780;27;19914;-58
2021/11/25 02:43:57;;;;;;;;;;;19.50;41.60;;;;;;5134616;27;19996;-60
2021/11/25 02:46:23;;;;;;;;;;;19.50;41.70;;;;;;5134522;27;19964;-58
2021/11/25 02:48:53;;;;;;;;;;;19.50;41.60;;;;;;5134584;27;19908;-58
2021/11/25 02:51:23;;;;;;;;;;;19.50;41.70;;;;;;5134792;27;19954;-59
2021/11/25 02:53:49;;;;;;;;;;;19.50;41.50;;;;;;5134831;27;19908;-58
2021/11/25 02:56:16;;;;;;;;;;;19.50;41.50;;;;;;5134286;27;20427;-60
2021/11/25 02:58:42;;;;;;;;;;;19.40;41.50;;;;;;5134385;27;20355;-59
2021/11/25 03:01:13;;;;;;;;;;;19.40;41.80;;;;;;5134554;27;20038;-59
2021/11/25 03:03:38;;;;;;;;;;;19.40;41.70;;;;;;5134396;27;19915;-58
2021/11/25 03:06:04;;;;;;;;;;;19.40;41.60;;;;;;5134554;28;19907;-60
2021/11/25 03:08:30;;;;;;;;;;;19.50;41.50;;;;;;5134082;27;20358;-59
2021/11/25 03:11:03;;;;;;;;;;;19.50;41.50;;;;;;5134650;28;19915;-60
2021/11/25 03:13:29;;;;;;;;;;;19.40;41.70;;;;;;5134248;28;19911;-58
2021/11/25 03:15:55;;;;;;;;;;;19.50;41.50;;;;;;5134518;28;19961;-59
2021/11/25 03:18:21;;;;;;;;;;;19.40;41.50;;;;;;5134219;28;20476;-59
2021/11/25 03:20:48;;;;;;;;;;;19.50;41.50;;;;;;5134371;28;19911;-59
2021/11/25 03:23:15;;;;;;;;;;;19.40;41.40;;;;;;5134331;28;19911;-58
2021/11/25 03:25:40;;;;;;;;;;;19.40;41.60;;;;;;5134196;28;20305;-58
2021/11/25 03:28:06;;;;;;;;;;;19.40;41.50;;;;;;5134083;28;19908;-58
2021/11/25 03:30:31;;;;;;;;;;;19.40;41.50;;;;;;5134170;28;19922;-59
2021/11/25 03:32:57;;;;;;;;;;;19.40;41.50;;;;;;5134492;28;19960;-60
2021/11/25 03:35:22;;;;;;;;;;;19.40;41.70;;;;;;5134104;28;20006;-59
2021/11/25 03:37:48;;;;;;;;;;;19.40;41.40;;;;;;5134015;28;19973;-58
2021/11/25 03:40:13;;;;;;;;;;;19.40;41.40;;;;;;5134131;28;19908;-59
2021/11/25 03:42:39;;;;;;;;;;;19.40;41.50;;;;;;5134299;28;20373;-59
2021/11/25 03:45:06;;;;;;;;;;;19.40;41.60;;;;;;5115666;28;19908;-58
2021/11/25 03:47:31;;;;;;;;;;;19.40;41.40;;;;;;5134237;28;20304;-60
2021/11/25 03:49:56;;;;;;;;;;;19.40;41.50;;;;;;5133979;28;19911;-59
2021/11/25 03:52:22;;;;;;;;;;;19.40;41.50;;;;;;5133988;28;19964;-58
2021/11/25 03:54:48;;;;;;;;;;;19.40;41.40;;;;;;5134283;28;20002;-58
2021/11/25 03:57:13;;;;;;;;;;;19.40;41.40;;;;;;5133744;28;19919;-58
2021/11/25 03:59:39;;;;;;;;;;;19.30;41.40;;;;;;5134105;28;19951;-58
2021/11/25 04:02:04;;;;;;;;;;;19.40;41.50;;;;;;5134085;28;19912;-58
2021/11/25 04:04:30;;;;;;;;;;;19.40;41.40;;;;;;5134102;28;19914;-58
2021/11/25 04:06:55;;;;;;;;;;;19.40;41.30;;;;;;5134109;28;20048;-58
2021/11/25 04:09:22;;;;;;;;;;;19.40;41.30;;;;;;5133767;28;19915;-59
2021/11/25 04:11:47;;;;;;;;;;;19.30;41.40;;;;;;5134054;28;19915;-58
2021/11/25 04:14:13;;;;;;;;;;;19.40;41.50;;;;;;5133951;28;19908;-58
2021/11/25 04:16:38;;;;;;;;;;;19.30;41.50;;;;;;5133947;28;20385;-59
2021/11/25 04:19:04;;;;;;;;;;;19.30;41.50;;;;;;5133827;28;20376;-58
2021/11/25 04:21:29;;;;;;;;;;;19.30;41.30;;;;;;5135978;27;19914;-58
2021/11/25 04:23:54;;;;;;;;;;;19.30;41.30;;;;;;5137406;27;20010;-58
2021/11/25 04:26:20;;;;;;;;;;;19.30;41.20;;;;;;5137262;27;20336;-58
2021/11/25 04:28:46;;;;;;;;;;;19.40;41.30;;;;;;5137466;27;19908;-58
2021/11/25 04:36:40;;;;;;;;;;;19.40;41.30;;;;;;5137091;27;19918;-58
2021/11/25 04:39:07;;;;;;;;;;;19.30;41.30;;;;;;5137050;27;20265;-59
2021/11/25 04:41:33;;;;;;;;;;;19.30;41.30;;;;;;5137337;27;19918;-59
2021/11/25 04:43:58;;;;;;;;;;;19.30;41.30;;;;;;5136913;27;19907;-59
2021/11/25 04:46:24;;;;;;;;;;;19.30;41.30;;;;;;5136981;27;19907;-58
2021/11/25 04:48:50;;;;;;;;;;;19.30;41.30;;;;;;5136960;27;19914;-60
2021/11/25 04:51:15;;;;;;;;;;;19.30;41.20;;;;;;5136707;27;19930;-59
2021/11/25 04:53:41;;;;;;;;;;;19.30;41.20;;;;;;5136753;27;20009;-58
2021/11/25 04:56:07;;;;;;;;;;;19.30;41.30;;;;;;5136809;27;19962;-60
2021/11/25 04:58:32;;;;;;;;;;;19.30;41.10;;;;;;5136554;27;20108;-60
2021/11/25 05:00:58;;;;;;;;;;;19.30;41.30;;;;;;5136860;27;19907;-58
2021/11/25 05:03:24;;;;;;;;;;;19.20;41.10;;;;;;5136506;27;20439;-59
2021/11/25 05:05:49;;;;;;;;;;;19.30;41.10;;;;;;5136487;27;19956;-58
2021/11/25 05:08:15;;;;;;;;;;;19.30;41.20;;;;;;5136883;27;19911;-58
2021/11/25 05:10:41;;;;;;;;;;;19.30;41.20;;;;;;5136647;27;19908;-58
2021/11/25 05:13:07;;;;;;;;;;;19.30;41.10;;;;;;5136380;27;20273;-57
2021/11/25 05:15:32;;;;;;;;;;;19.30;41.10;;;;;;5136457;27;19907;-59
2021/11/25 05:17:57;;;;;;;;;;;19.30;41.10;;;;;;5136227;27;19922;-59
2021/11/25 05:20:23;;;;;;;;;;;19.30;41.10;;;;;;5136251;27;19912;-58
2021/11/25 05:22:50;;;;;;;;;;;19.30;41.10;;;;;;5136364;27;19934;-58
2021/11/25 05:25:16;;;;;;;;;;;19.40;40.90;;;;;;5136090;27;19960;-58
2021/11/25 05:27:42;;;;;;;;;;;19.40;41.00;;;;;;5136355;27;19933;-59
2021/11/25 05:30:09;;;;;;;;;;;19.40;41.00;;;;;;5136269;27;19914;-58
2021/11/25 05:32:35;;;;;;;;;;;19.40;40.80;;;;;;5135842;27;19907;-59
2021/11/25 05:35:00;;;;;;;;;;;19.50;40.80;;;;;;5135805;27;20298;-58
2021/11/25 05:37:26;;;;;;;;;;;19.50;41.00;;;;;;5136088;27;20359;-59
2021/11/25 05:39:51;;;;;;;;;;;19.50;40.90;;;;;;5136117;27;19914;-58
2021/11/25 05:42:18;;;;;;;;;;;19.50;40.80;;;;;;5136092;27;19911;-59
2021/11/25 05:44:44;;;;;;;;;;;19.50;41.00;;;;;;5135635;27;19908;-60
2021/11/25 05:47:09;;;;;;;;;;;19.50;40.80;;;;;;5135651;27;19953;-59
2021/11/25 05:49:35;;;;;;;;;;;19.50;40.90;;;;;;5135920;27;20354;-59
2021/11/25 05:52:00;;;;;;;;;;;19.60;41.00;;;;;;5135552;27;19908;-59
2021/11/25 05:54:26;;;;;;;;;;;19.60;40.80;;;;;;5135783;27;19907;-58
2021/11/25 05:56:51;;;;;;;;;;;19.50;40.90;;;;;;5135296;27;19920;-58
2021/11/25 05:59:17;;;;;;;;;;;19.60;40.70;;;;;;5135476;27;19968;-59
2021/11/25 06:01:42;;;;;;;;;;;19.60;40.70;;;;;;5135202;27;19911;-60
2021/11/25 06:04:08;;;;;;;;;;;19.60;40.70;;;;;;5135134;27;19907;-58
2021/11/25 06:06:33;;;;;;;;;;;19.60;40.80;;;;;;5135162;27;19912;-59
2021/11/25 06:08:59;;;;;;;;;;;19.60;40.70;;;;;;5135284;27;19911;-60
2021/11/25 06:11:24;;;;;;;;;;;19.60;40.80;;;;;;5135199;27;19949;-59
2021/11/25 06:13:49;;;;;;;;;;;19.60;40.60;;;;;;5135379;27;20342;-59
2021/11/25 06:16:15;;;;;;;;;;;19.60;40.80;;;;;;5135255;27;19934;-58
2021/11/25 06:18:41;;;;;;;;;;;19.60;40.50;;;;;;5134951;27;20002;-58
2021/11/25 06:21:06;;;;;;;;;;;19.60;40.50;;;;;;5135251;27;19914;-58
2021/11/25 06:23:32;;;;;;;;;;;19.60;40.60;;;;;;5135111;27;19994;-58
2021/11/25 06:25:58;;;;;;;;;;;19.60;40.50;;;;;;5135022;27;19915;-59
2021/11/25 06:28:23;;;;;;;;;;;19.60;40.50;;;;;;5134907;27;20358;-60
2021/11/25 06:30:48;;;;;;;;;;;19.60;40.50;;;;;;5134898;27;19998;-59
2021/11/25 06:33:14;;;;;;;;;;;19.60;40.40;;;;;;5134955;27;19915;-60
2021/11/25 06:35:40;;;;;;;;;;;19.60;40.50;;;;;;5134560;27;19911;-58
2021/11/25 06:38:06;;;;;;;;;;;19.60;40.50;;;;;;5134765;27;19916;-58
2021/11/25 06:40:33;;;;;;;;;;;19.60;40.40;;;;;;5134997;27;19946;-59
2021/11/25 06:42:59;;;;;;;;;;;19.60;40.50;;;;;;5134451;27;20338;-58
2021/11/25 06:45:25;;;;;;;;;;;19.60;40.40;;;;;;5134832;27;20000;-58
2021/11/25 06:47:51;;;;;;;;;;;19.60;40.50;;;;;;5134813;27;19912;-58
2021/11/25 06:50:17;;;;;;;;;;;19.60;40.50;;;;;;5134453;27;19907;-59
2021/11/25 06:52:43;;;;;;;;;;;19.60;40.40;;;;;;5134541;27;19926;-58
2021/11/25 06:55:09;;;;;;;;;;;19.60;40.40;;;;;;5134697;27;20270;-58
2021/11/25 06:57:36;;;;;;;;;;;19.70;40.40;;;;;;5134307;27;19919;-59
2021/11/25 07:00:04;;;;;;;;;;;19.60;40.30;;;;;;5134384;27;19994;-60
2021/11/25 07:02:30;;;;;;;;;;;19.60;40.50;;;;;;5134576;27;20002;-60
2021/11/25 07:04:56;;;;;;;;;;;19.70;40.40;;;;;;5134566;27;19947;-60
2021/11/25 07:07:22;;;;;;;;;;;19.70;40.40;;;;;;5134640;28;19907;-59
2021/11/25 07:09:48;;;;;;;;;;;19.60;40.40;;;;;;5134474;28;19971;-59
2021/11/25 07:12:13;;;;;;;;;;;19.70;40.40;;;;;;5134560;28;19914;-59
2021/11/25 07:14:39;;;;;;;;;;;19.60;40.30;;;;;;5134486;28;19907;-60
2021/11/25 07:17:04;;;;;;;;;;;19.60;40.30;;;;;;5134100;28;19915;-58
2021/11/25 07:19:30;;;;;;;;;;;19.60;40.20;;;;;;5134136;28;19907;-60
2021/11/25 07:21:55;;;;;;;;;;;19.60;40.20;;;;;;5133944;28;19908;-58
2021/11/25 07:24:21;;;;;;;;;;;19.70;40.30;;;;;;5134212;28;19913;-59
2021/11/25 07:26:46;;;;;;;;;;;19.70;40.30;;;;;;5134207;28;19976;-58
2021/11/25 07:29:12;;;;;;;;;;;19.70;40.20;;;;;;5134339;28;19949;-60
2021/11/25 07:31:37;;;;;;;;;;;19.60;40.20;;;;;;5134133;28;20000;-58
2021/11/25 07:34:03;;;;;;;;;;;19.70;40.20;;;;;;5134064;28;19907;-59
2021/11/25 07:36:28;;;;;;;;;;;19.60;40.30;;;;;;5133738;28;19985;-57
2021/11/25 07:38:54;;;;;;;;;;;19.70;40.30;;;;;;5133965;28;19911;-59
2021/11/25 07:41:20;;;;;;;;;;;19.70;40.30;;;;;;5134067;28;19911;-60
2021/11/25 07:43:45;;;;;;;;;;;19.70;40.20;;;;;;5133744;28;19911;-60
2021/11/25 07:46:11;;;;;;;;;;;19.70;40.20;;;;;;5134314;28;19908;-59
2021/11/25 07:48:37;;;;;;;;;;;19.70;40.20;;;;;;5133752;28;19973;-60
2021/11/25 07:51:02;;;;;;;;;;;19.70;40.20;;;;;;5133819;28;19959;-60
2021/11/25 07:53:28;;;;;;;;;;;19.70;40.10;;;;;;5133990;28;19907;-60
2021/11/25 07:55:54;;;;;;;;;;;19.70;40.20;;;;;;5135484;27;19922;-60
2021/11/25 07:58:20;;;;;;;;;;;19.70;40.20;;;;;;5137782;27;19916;-59
2021/11/25 08:00:46;;;;;;;;;;;19.70;40.30;;;;;;5137184;27;19907;-58
2021/11/25 08:03:11;;;;;;;;;;;19.70;40.20;;;;;;5137372;27;20274;-55
2021/11/25 08:05:36;;;;;;;;;;;19.70;40.40;;;;;;5137873;27;19907;-60
2021/11/25 08:08:02;;;;;;;;;;;19.70;40.10;;;;;;5140413;27;20294;-58
2021/11/25 08:10:28;;;;;;;;;;;19.70;40.30;;;;;;5141548;27;19908;-59
2021/11/25 08:12:54;;;;;;;;;;;19.70;40.20;;;;;;5136895;27;20037;-57
2021/11/25 08:15:20;;;;;;;;;;;19.70;40.40;;;;;;5136093;27;19915;-58
2021/11/25 08:17:46;;;;;;;;;;;19.70;40.30;;;;;;5136523;27;20005;-52
2021/11/25 08:20:12;;;;;;;;;;;19.80;40.10;;;;;;5136810;27;19908;-59
2021/11/25 08:22:37;;;;;;;;;;;19.80;40.00;;;;;;5136886;27;19930;-59
2021/11/25 08:25:05;;;;;;;;;;;19.80;40.00;;;;;;5136407;27;19963;-55
2021/11/25 08:27:31;;;;;;;;;;;19.80;40.10;;;;;;5136424;27;19907;-55
2021/11/25 08:29:57;;;;;;;;;;;19.80;40.20;;;;;;5136139;27;20138;-58
2021/11/25 08:32:22;;;;;;;;;;;19.70;40.20;;;;;;5136673;27;19940;-57
2021/11/25 08:34:48;;;;;;;;;;;19.80;40.30;;;;;;5135819;27;20002;-58
2021/11/25 08:37:13;;;;;;;;;;;19.80;40.20;;;;;;5136126;27;19916;-57
2021/11/25 08:39:39;;;;;;;;;;;19.80;40.30;;;;;;5136316;27;19908;-54
2021/11/25 08:42:05;;;;;;;;;;;19.80;40.30;;;;;;5136272;27;20354;-57
2021/11/25 08:44:31;;;;;;;;;;;19.80;40.30;;;;;;5135879;27;19914;-60
2021/11/25 08:46:57;;;;;;;;;;;19.90;40.20;;;;;;5136052;27;19937;-58
2021/11/25 08:49:22;;;;;;;;;;;19.80;40.30;;;;;;5135617;27;19915;-58
2021/11/25 08:51:47;;;;;;;;;;;19.80;40.20;;;;;;5136035;27;20007;-56
2021/11/25 08:54:13;;;;;;;;;;;19.80;40.10;;;;;;5135319;27;19911;-57
2021/11/25 08:56:38;;;;;;;;;;;19.80;40.30;;;;;;5135287;27;19919;-58
2021/11/25 08:59:04;;;;;;;;;;;19.80;40.20;;;;;;5135770;27;20022;-56
2021/11/25 09:01:30;;;;;;;;;;;19.80;40.20;;;;;;5135847;27;20430;-55
2021/11/25 09:03:55;;;;;;;;;;;19.80;40.10;;;;;;5136005;27;19907;-59
2021/11/25 09:06:21;;;;;;;;;;;19.70;40.20;;;;;;5136044;27;19908;-58
2021/11/25 09:08:46;;;;;;;;;;;19.70;39.60;;;;;;5136218;27;19914;-58
2021/11/25 09:11:14;;;;;;;;;;;19.60;39.30;;;;;;5143990;27;20017;-56
2021/11/25 09:13:39;;;;;;;;;;;19.70;39.80;;;;;;5136627;27;20014;-56
2021/11/25 09:16:05;;;;;;;;;;;19.80;39.90;;;;;;5141710;27;19962;-56
2021/11/25 09:18:30;;;;;;;;;;;19.80;40.10;;;;;;5135848;27;19966;-57
2021/11/25 09:20:56;;;;;;;;;;;19.80;40.20;;;;;;5141026;27;20006;-56
2021/11/25 09:23:21;;;;;;;;;;;19.80;40.30;;;;;;5139804;27;20293;-55
2021/11/25 09:25:48;;;;;;;;;;;19.90;40.20;;;;;;5137019;27;20044;-58
2021/11/25 09:28:17;;;;;;;;;;;19.80;39.90;;;;;;5134587;27;20382;-54
2021/11/25 09:30:43;;;;;;;;;;;19.80;40.00;;;;;;5134820;27;20431;-58
2021/11/25 09:33:10;;;;;;;;;;;19.80;40.10;;;;;;5135785;27;20351;-58
2021/11/25 09:35:36;;;;;;;;;;;19.80;40.10;;;;;;5134470;27;20314;-57
2021/11/25 09:38:01;;;;;;;;;;;19.80;40.10;;;;;;5135927;27;20006;-60
2021/11/25 09:40:27;;;;;;;;;;;19.80;40.30;;;;;;5154201;27;20382;-57
2021/11/25 09:43:00;;;;;;;;;;;19.80;40.20;;;;;;5153960;27;19922;-58
2021/11/25 09:45:27;;;;;;;;;;;19.90;40.30;;;;;;5139564;27;19912;-59
2021/11/25 09:47:54;;;;;;;;;;;19.90;40.20;;;;;;5156307;27;20398;-60
2021/11/25 09:50:20;;;;;;;;;;;19.90;39.90;;;;;;5154544;27;19957;-59
2021/11/25 09:52:47;;;;;;;;;;;19.90;40.20;;;;;;5155263;27;19911;-59
2021/11/25 09:55:12;;;;;;;;;;;19.90;40.20;;;;;;5134980;27;19923;-58
2021/11/25 09:57:38;;;;;;;;;;;19.90;40.20;;;;;;5134132;27;19927;-59
2021/11/25 10:00:04;;;;;;;;;;;19.90;40.30;;;;;;5142005;27;20322;-58
2021/11/25 10:02:30;;;;;;;;;;;19.90;40.30;;;;;;5135353;27;19919;-59
2021/11/25 10:04:55;;;;;;;;;;;19.90;40.30;;;;;;5139885;27;19919;-59
2021/11/25 10:07:32;;;;;;;;;;;19.90;40.30;;;;;;5153521;27;19917;-60
2021/11/25 10:09:57;;;;;;;;;;;19.90;40.40;;;;;;5147758;27;19963;-57
2021/11/25 10:12:36;;;;;;;;;;;19.90;40.40;;;;;;5142768;27;19958;-55
2021/11/25 10:15:22;;;;;;;;;;;19.90;40.50;;;;;;5144912;27;19918;-58
2021/11/25 10:17:48;;;;;;;;;;;20.00;40.30;;;;;;5133641;27;19922;-58
2021/11/25 10:20:18;;;;;;;;;;;20.00;40.50;;;;;;5135890;27;20423;-57
2021/11/25 10:23:02;;;;;;;;;;;19.90;40.40;;;;;;5136542;27;19964;-58
2021/11/25 10:25:44;;;;;;;;;;;20.00;40.40;;;;;;5133644;27;19918;-55
2021/11/25 10:28:28;;;;;;;;;;;19.90;40.40;;;;;;5140752;27;19911;-57
2021/11/25 10:30:55;;;;;;;;;;;19.90;40.30;;;;;;5134510;27;20052;-57
2021/11/25 10:33:29;;;;;;;;;;;20.00;40.50;;;;;;5133062;27;20282;-56
2021/11/25 10:38:58;;;;;;;;;;;19.90;40.30;;;;;;5150879;27;20460;-58
2021/11/25 10:41:25;;;;;;;;;;;20.00;40.30;;;;;;5154446;27;19911;-58
2021/11/25 10:44:09;;;;;;;;;;;20.00;40.40;;;;;;5137401;27;19915;-57
2021/11/25 10:46:35;;;;;;;;;;;20.00;40.40;;;;;;5132353;27;19908;-55
2021/11/25 10:49:01;;;;;;;;;;;20.00;40.50;;;;;;5133723;27;19907;-51
2021/11/25 10:51:34;;;;;;;;;;;20.00;40.50;;;;;;5133387;27;19915;-54
2021/11/25 10:54:12;;;;;;;;;;;19.80;39.90;;;;;;5133595;27;19915;-55
2021/11/25 10:56:41;;;;;;;;;;;19.80;40.60;;;;;;5132863;27;19971;-53
2021/11/25 10:59:07;;;;;;;;;;;19.90;40.50;;;;;;5133387;27;20000;-56
2021/11/25 11:01:37;;;;;;;;;;;19.90;40.30;;;;;;5133743;27;19908;-52
2021/11/25 11:04:03;;;;;;;;;;;20.00;40.30;;;;;;5148721;27;19911;-52
2021/11/25 11:06:31;;;;;;;;;;;20.00;40.30;;;;;;5151657;27;20278;-55
2021/11/25 11:08:56;;;;;;;;;;;20.00;40.20;;;;;;5152454;27;19914;-52
2021/11/25 11:11:22;;;;;;;;;;;20.00;40.30;;;;;;5153521;27;20009;-56
2021/11/25 11:14:27;;;;;;;;;;;20.00;40.30;;;;;;5152818;27;19907;-54
2021/11/25 11:16:53;;;;;;;;;;;20.00;40.40;;;;;;5135450;27;20336;-56
2021/11/25 11:19:18;;;;;;;;;;;20.00;40.40;;;;;;5133180;28;19951;-55
2021/11/25 11:21:48;;;;;;;;;;;20.00;40.40;;;;;;5133180;27;19949;-56
2021/11/25 11:24:14;;;;;;;;;;;20.00;40.40;;;;;;5147962;27;20001;-54
2021/11/25 11:26:42;;;;;;;;;;;20.00;39.90;;;;;;5143123;27;20345;-58
2021/11/25 11:29:09;;;;;;;;;;;19.80;39.50;;;;;;5140891;27;19919;-56
2021/11/25 11:31:35;;;;;;;;;;;19.80;40.60;;;;;;5149575;27;19919;-55
2021/11/25 11:34:02;;;;;;;;;;;19.80;40.40;;;;;;5136997;27;19915;-57
2021/11/25 11:36:29;;;;;;;;;;;19.90;40.40;;;;;;5144898;27;20084;-57
2021/11/25 11:38:56;;;;;;;;;;;19.90;40.40;;;;;;5155552;27;20010;-56
2021/11/25 11:41:22;;;;;;;;;;;19.90;40.30;;;;;;5150119;27;19911;-56
2021/11/25 11:43:47;;;;;;;;;;;19.90;40.30;;;;;;5142955;27;19911;-51
2021/11/25 11:46:14;;;;;;;;;;;19.90;40.30;;;;;;5136852;27;20273;-57
2021/11/25 11:48:40;;;;;;;;;;;19.90;40.40;;;;;;5138251;27;20011;-58
2021/11/25 11:51:13;;;;;;;;;;;19.90;40.30;;;;;;5136720;27;19939;-56
2021/11/25 11:53:41;;;;;;;;;;;20.00;40.10;;;;;;5152938;27;19958;-56
2021/11/25 11:56:08;;;;;;;;;;;20.00;40.30;;;;;;5147544;27;20006;-58
2021/11/25 11:58:34;;;;;;;;;;;20.00;40.40;;;;;;5136247;27;19934;-59
2021/11/25 12:01:06;;;;;;;;;;;20.00;40.20;;;;;;5136943;27;19937;-58
2021/11/25 12:03:36;;;;;;;;;;;19.90;40.20;;;;;;5148741;27;19911;-58
2021/11/25 12:06:02;;;;;;;;;;;19.90;40.30;;;;;;5133572;27;19911;-55
2021/11/25 12:08:30;;;;;;;;;;;20.00;40.30;;;;;;5146843;27;19908;-58
2021/11/25 12:10:58;;;;;;;;;;;20.00;40.30;;;;;;5135654;27;19907;-58
2021/11/25 12:13:24;;;;;;;;;;;19.90;40.20;;;;;;5149221;27;20369;-57
2021/11/25 12:15:50;;;;;;;;;;;20.00;40.20;;;;;;5156656;27;19913;-57
2021/11/25 12:18:34;;;;;;;;;;;20.00;40.20;;;;;;5157977;27;20013;-57
2021/11/25 12:21:01;;;;;;;;;;;20.00;40.20;;;;;;5157781;27;20000;-57
2021/11/25 12:23:52;;;;;;;;;;;20.00;40.20;;;;;;5147398;27;20410;-56
2021/11/25 12:26:18;;;;;;;;;;;20.00;40.30;;;;;;5133839;27;20317;-58
2021/11/25 12:28:43;;;;;;;;;;;20.00;40.20;;;;;;5137222;27;19911;-57
2021/11/25 12:33:45;;;;;;;;;;;20.00;40.30;;;;;;5138409;27;19911;-58
2021/11/25 12:36:31;;;;;;;;;;;20.00;40.30;;;;;;5136943;27;20327;-58
2021/11/25 12:38:56;;;;;;;;;;;20.00;40.40;;;;;;5136766;27;20318;-57
2021/11/25 12:41:21;;;;;;;;;;;20.00;40.40;;;;;;5135967;27;19918;-56
2021/11/25 12:43:47;;;;;;;;;;;20.00;40.40;;;;;;5145364;27;20373;-57
2021/11/25 12:46:14;;;;;;;;;;;20.00;40.40;;;;;;5143773;27;20002;-58
2021/11/25 12:48:40;;;;;;;;;;;20.00;40.40;;;;;;5136870;27;19911;-57
2021/11/25 12:51:09;;;;;;;;;;;20.00;40.40;;;;;;5143665;27;19911;-59
2021/11/25 12:53:37;;;;;;;;;;;20.00;40.50;;;;;;5157595;27;19914;-57
2021/11/25 12:56:02;;;;;;;;;;;20.00;40.50;;;;;;5156775;27;19915;-58
2021/11/25 12:58:30;;;;;;;;;;;20.00;40.50;;;;;;5151129;27;19919;-58
2021/11/25 13:00:56;;;;;;;;;;;20.00;40.50;;;;;;5147693;27;19911;-57
2021/11/25 13:03:22;;;;;;;;;;;20.00;40.50;;;;;;5137651;27;19952;-59
2021/11/25 13:05:49;;;;;;;;;;;20.00;40.60;;;;;;5134886;27;19961;-57
2021/11/25 13:08:25;;;;;;;;;;;20.00;40.50;;;;;;5116645;27;19957;-56
2021/11/25 13:10:51;;;;;;;;;;;20.00;40.50;;;;;;5135351;27;19907;-57
2021/11/25 13:13:18;;;;;;;;;;;20.00;40.60;;;;;;5135714;27;19912;-60
2021/11/25 13:15:55;;;;;;;;;;;20.00;40.60;;;;;;5148337;27;20354;-58
2021/11/25 13:18:20;;;;;;;;;;;20.00;40.60;;;;;;5144531;27;19922;-58
2021/11/25 13:20:47;;;;;;;;;;;20.00;40.60;;;;;;5136099;27;19908;-60
2021/11/25 13:23:14;;;;;;;;;;;20.00;40.60;;;;;;5135856;27;19912;-58
2021/11/25 13:25:53;;;;;;;;;;;20.00;40.60;;;;;;5136142;27;19908;-59
2021/11/25 13:28:29;;;;;;;;;;;20.00;40.60;;;;;;5135924;27;20428;-55
2021/11/25 13:31:09;;;;;;;;;;;20.00;40.70;;;;;;5135500;27;19907;-58
2021/11/25 13:33:53;;;;;;;;;;;20.00;40.70;;;;;;5139553;27;19919;-57
2021/11/25 13:36:19;;;;;;;;;;;20.00;40.70;;;;;;5145092;27;19915;-59
2021/11/25 13:38:48;;;;;;;;;;;20.00;40.70;;;;;;5146582;27;19923;-56
2021/11/25 13:41:14;;;;;;;;;;;20.00;40.70;;;;;;5153245;27;19950;-56
2021/11/25 13:43:50;;;;;;;;;;;20.00;40.70;;;;;;5155882;27;20386;-55
2021/11/25 13:46:15;;;;;;;;;;;20.00;40.80;;;;;;5155020;27;19911;-58
2021/11/25 13:48:41;;;;;;;;;;;20.00;40.80;;;;;;5147642;27;20359;-58
2021/11/25 13:51:07;;;;;;;;;;;20.00;40.80;;;;;;5148570;27;20349;-59
2021/11/25 13:53:32;;;;;;;;;;;20.00;40.80;;;;;;5156032;27;19968;-58
2021/11/25 13:55:58;;;;;;;;;;;20.10;40.80;;;;;;5148764;27;20006;-59
2021/11/25 13:58:23;;;;;;;;;;;20.10;40.70;;;;;;5134083;27;19920;-60
2021/11/25 14:00:51;;;;;;;;;;;20.20;40.70;;;;;;5138395;27;19918;-60
2021/11/25 14:03:18;;;;;;;;;;;20.10;40.80;;;;;;5155220;27;20278;-60
2021/11/25 14:05:46;;;;;;;;;;;20.00;40.80;;;;;;5155071;27;19960;-60
2021/11/25 14:08:12;;;;;;;;;;;20.00;40.90;;;;;;5155878;27;19907;-60
2021/11/25 14:10:37;;;;;;;;;;;20.00;40.90;;;;;;5156126;27;20330;-60
2021/11/25 14:13:04;;;;;;;;;;;20.00;41.00;;;;;;5143847;27;19919;-60
2021/11/25 14:15:31;;;;;;;;;;;20.00;40.90;;;;;;5136831;27;19934;-61
2021/11/25 14:18:00;;;;;;;;;;;20.00;40.50;;;;;;5135591;27;19929;-60
2021/11/25 14:20:27;;;;;;;;;;;19.70;40.90;;;;;;5154854;27;19907;-59
2021/11/25 14:22:53;;;;;;;;;;;19.70;41.30;;;;;;5138020;27;19954;-59
2021/11/25 14:25:23;;;;;;;;;;;19.80;41.30;;;;;;5134700;27;19908;-60